Morania No 6 — WBQ7544 — position and weather

sailwx.info

Track history (hours):
 
Tides and Currents Weather Stations Pressure Air Temp Water Temp Dewpoint Dewpoint Depression Visibility Wind Speed Wind Dir Waves Ship Positions

Morania No 6

Owner: PENN MARITIME INC, Seattle, WA. More information available from US FCC via Universal Licensing System and Coast Guard Vessel Documentation Center.

Last reported at 2016-Jan-25 22:13 UTC. Time now 2016-Feb-12 22:36 UTC.
Position N 29°50' W 093°57'.
Warning: this ship's position is 18 days out of date.

Length 45 m; draft 9.3 m.

MMSI: 366920970.

Date/timePositionNaut miles runAvg speedWind from/ knotsBaromVisibWave heightAir tempDewpointWater temp
2016-Jan-25 22:13N 29°50' W 093°57'0 0.0
2016-Jan-25 12:33N 29°50' W 093°58'0 0.0
2016-Jan-25 11:07N 29°50' W 093°58'0 0.0
2016-Jan-25 10:30N 29°50' W 093°58'0 0.0
2016-Jan-25 09:26N 29°50' W 093°58'0 0.0
2016-Jan-25 07:31N 29°50' W 093°58'0 0.0
2016-Jan-24 21:19N 29°50' W 093°58'0 0.0
2016-Jan-24 20:24N 29°50' W 093°58'0 0.0
2016-Jan-24 14:19N 29°50' W 093°58'0 0.0
2016-Jan-24 13:27N 29°50' W 093°58'0 0.0
2016-Jan-24 12:32N 29°50' W 093°58'0 0.0
2016-Jan-24 11:32N 29°50' W 093°58'0 0.0
2016-Jan-24 10:30N 29°50' W 093°58'0 0.0
2016-Jan-24 09:15N 29°50' W 093°58'0 0.0
2016-Jan-24 08:34N 29°50' W 093°58'0 0.0
2016-Jan-24 07:11N 29°50' W 093°58'0 0.0
2016-Jan-24 06:21N 29°50' W 093°58'0 0.0
2016-Jan-24 05:33N 29°50' W 093°58'0 0.0
2016-Jan-24 04:30N 29°50' W 093°58'0 0.0
2016-Jan-24 03:31N 29°50' W 093°58'0 0.0
2016-Jan-24 02:33N 29°50' W 093°58'0 0.0
2016-Jan-24 01:31N 29°50' W 093°58'0 0.0
2016-Jan-24 00:33N 29°50' W 093°58'0 0.0
2016-Jan-23 16:23N 29°50' W 093°58'0 0.0
2016-Jan-23 15:27N 29°50' W 093°58'0 0.0
2016-Jan-23 12:18N 29°50' W 093°58'0 0.0
2016-Jan-23 11:28N 29°50' W 093°58'0 0.0
2016-Jan-23 10:33N 29°50' W 093°58'0 0.0
2016-Jan-23 09:10N 29°50' W 093°58'0 0.0
2016-Jan-23 08:29N 29°50' W 093°58'0 0.0
2016-Jan-23 07:06N 29°50' W 093°58'2 0.1
2016-Jan-21 10:09N 29°52' W 093°56'0 0.0
2016-Jan-21 09:33N 29°52' W 093°56'0 0.0
2016-Jan-21 08:26N 29°52' W 093°56'0 0.0
2016-Jan-21 07:33N 29°52' W 093°56'0 0.0
2016-Jan-21 06:33N 29°52' W 093°56'0 0.0
2016-Jan-21 05:32N 29°52' W 093°56'0 0.0
2016-Jan-21 04:34N 29°52' W 093°56'0 0.0
2016-Jan-21 03:33N 29°52' W 093°56'0 0.0
2016-Jan-21 02:33N 29°52' W 093°56'0 0.0
2016-Jan-21 01:33N 29°52' W 093°56'0 0.0
2016-Jan-21 00:34N 29°52' W 093°56'0 0.0
2016-Jan-20 07:33N 29°52' W 093°56'0 0.0
2016-Jan-20 06:28N 29°52' W 093°56'0 0.0
2016-Jan-20 05:14N 29°52' W 093°56'0 0.0
2016-Jan-20 04:27N 29°52' W 093°56'0 0.0
2016-Jan-20 01:19N 29°52' W 093°56'0 0.0
2016-Jan-20 00:23N 29°52' W 093°56'10 1.2
2016-Jan-19 16:09N 29°43' W 093°51'5 6.6
2016-Jan-19 15:22N 29°38' W 093°49'6 7.4
2016-Jan-19 14:33N 29°33' W 093°45'5 3.2
2016-Jan-19 13:08N 29°30' W 093°49'48 4.5
2016-Jan-19 02:21N 29°21' W 094°43'5 6.8
2016-Jan-19 01:33N 29°23' W 094°49'7 7.0
2016-Jan-19 00:34N 29°30' W 094°52'7 7.2
2016-Jan-18 23:34N 29°36' W 094°57'7 7.2
2016-Jan-18 22:34N 29°42' W 095°00'6 5.7
2016-Jan-18 21:34N 29°45' W 095°06'1 0.8
2016-Jan-18 20:33N 29°45' W 095°06'0 0.0
2016-Jan-18 19:33N 29°45' W 095°06'0 0.0
2016-Jan-18 18:33N 29°45' W 095°06'0 0.0
2016-Jan-18 17:33N 29°45' W 095°06'0 0.0
2016-Jan-18 16:33N 29°45' W 095°06'0 0.0
2016-Jan-18 15:34N 29°45' W 095°06'0 0.0
2016-Jan-18 14:33N 29°45' W 095°06'0 0.0
2016-Jan-18 13:33N 29°45' W 095°06'0 0.0
2016-Jan-18 12:34N 29°45' W 095°06'0 0.0
2016-Jan-18 11:34N 29°45' W 095°06'0 0.0
2016-Jan-18 10:34N 29°45' W 095°06'0 0.0
2016-Jan-18 09:34N 29°45' W 095°06'0 0.0
2016-Jan-18 08:33N 29°45' W 095°06'0 0.0
2016-Jan-18 07:34N 29°45' W 095°06'0 0.0
2016-Jan-18 06:34N 29°45' W 095°06'0 0.0
2016-Jan-18 05:34N 29°45' W 095°06'0 0.0
2016-Jan-18 04:34N 29°45' W 095°06'0 0.0
2016-Jan-18 03:33N 29°45' W 095°06'0 0.0
2016-Jan-18 02:34N 29°45' W 095°06'0 0.0
2016-Jan-18 01:34N 29°45' W 095°06'0 0.0
2016-Jan-18 00:33N 29°45' W 095°06'0 0.0
2016-Jan-17 23:34N 29°45' W 095°06'0 0.0
2016-Jan-17 22:33N 29°45' W 095°06'1 1.0
2016-Jan-17 21:30N 29°46' W 095°05'8 8.0
2016-Jan-17 20:34N 29°41' W 094°59'10 9.7
2016-Jan-17 19:34N 29°32' W 094°54'1310.8
2016-Jan-17 18:20N 29°21' W 094°46'1 1.6
2016-Jan-17 17:33N 29°21' W 094°45'0 0.0
2016-Jan-17 16:34N 29°21' W 094°45'0 0.1
2016-Jan-17 14:30N 29°21' W 094°45'0 0.0
2016-Jan-17 11:30N 29°21' W 094°45'0 0.0
2016-Jan-17 10:33N 29°21' W 094°45'0 0.0
2016-Jan-17 09:14N 29°21' W 094°45'0 0.0
2016-Jan-17 08:27N 29°21' W 094°45'0 0.0
2016-Jan-17 07:25N 29°21' W 094°45'0 0.0
2016-Jan-17 06:29N 29°21' W 094°45'0 0.2
2016-Jan-17 03:24N 29°21' W 094°44'51 5.8
2016-Jan-16 18:30N 29°41' W 093°50'11 5.7
2016-Jan-16 16:31N 29°50' W 093°57'0 0.0
2016-Jan-16 15:34N 29°50' W 093°58'0 0.0
2016-Jan-16 14:33N 29°50' W 093°58'0 0.0
2016-Jan-16 13:34N 29°50' W 093°58'0 0.0
2016-Jan-16 12:33N 29°50' W 093°58'0 0.0
2016-Jan-16 11:33N 29°50' W 093°58'0 0.0
2016-Jan-16 10:34N 29°50' W 093°58'0 0.0
2016-Jan-16 09:34N 29°50' W 093°58'0 0.0
2016-Jan-16 08:34N 29°50' W 093°58'0 0.0
2016-Jan-16 07:33N 29°50' W 093°58'0 0.0
2016-Jan-16 06:33N 29°50' W 093°58'0 0.0
2016-Jan-16 05:32N 29°50' W 093°58'0 0.0
2016-Jan-16 04:29N 29°50' W 093°58'  
Track history (hours):
 
Tides and Currents Weather Stations Pressure Air Temp Water Temp Dewpoint Dewpoint Depression Visibility Wind Speed Wind Dir Waves Ship Positions

Morania No 6

Owner: PENN MARITIME INC, Seattle, WA. More information available from US FCC via Universal Licensing System and Coast Guard Vessel Documentation Center.

Last reported at 2016-Jan-25 22:13 UTC. Time now 2016-Feb-12 22:36 UTC.
Position N 29°50' W 093°57'.
Warning: this ship's position is 18 days out of date.

Length 45 m; draft 9.3 m.

MMSI: 366920970.

Date/timePositionNaut miles runAvg speedWind from/ knotsBaromVisibWave heightAir tempDewpointWater temp
2016-Jan-25 22:13N 29°50' W 093°57'0 0.0
2016-Jan-25 12:33N 29°50' W 093°58'0 0.0
2016-Jan-25 11:07N 29°50' W 093°58'0 0.0
2016-Jan-25 10:30N 29°50' W 093°58'0 0.0
2016-Jan-25 09:26N 29°50' W 093°58'0 0.0
2016-Jan-25 07:31N 29°50' W 093°58'0 0.0
2016-Jan-24 21:19N 29°50' W 093°58'0 0.0
2016-Jan-24 20:24N 29°50' W 093°58'0 0.0
2016-Jan-24 14:19N 29°50' W 093°58'0 0.0
2016-Jan-24 13:27N 29°50' W 093°58'0 0.0
2016-Jan-24 12:32N 29°50' W 093°58'0 0.0
2016-Jan-24 11:32N 29°50' W 093°58'0 0.0
2016-Jan-24 10:30N 29°50' W 093°58'0 0.0
2016-Jan-24 09:15N 29°50' W 093°58'0 0.0
2016-Jan-24 08:34N 29°50' W 093°58'0 0.0
2016-Jan-24 07:11N 29°50' W 093°58'0 0.0
2016-Jan-24 06:21N 29°50' W 093°58'0 0.0
2016-Jan-24 05:33N 29°50' W 093°58'0 0.0
2016-Jan-24 04:30N 29°50' W 093°58'0 0.0
2016-Jan-24 03:31N 29°50' W 093°58'0 0.0
2016-Jan-24 02:33N 29°50' W 093°58'0 0.0
2016-Jan-24 01:31N 29°50' W 093°58'0 0.0
2016-Jan-24 00:33N 29°50' W 093°58'0 0.0
2016-Jan-23 16:23N 29°50' W 093°58'0 0.0
2016-Jan-23 15:27N 29°50' W 093°58'0 0.0
2016-Jan-23 12:18N 29°50' W 093°58'0 0.0
2016-Jan-23 11:28N 29°50' W 093°58'0 0.0
2016-Jan-23 10:33N 29°50' W 093°58'0 0.0
2016-Jan-23 09:10N 29°50' W 093°58'0 0.0
2016-Jan-23 08:29N 29°50' W 093°58'0 0.0
2016-Jan-23 07:06N 29°50' W 093°58'2 0.1
2016-Jan-21 10:09N 29°52' W 093°56'0 0.0
2016-Jan-21 09:33N 29°52' W 093°56'0 0.0
2016-Jan-21 08:26N 29°52' W 093°56'0 0.0
2016-Jan-21 07:33N 29°52' W 093°56'0 0.0
2016-Jan-21 06:33N 29°52' W 093°56'0 0.0
2016-Jan-21 05:32N 29°52' W 093°56'0 0.0
2016-Jan-21 04:34N 29°52' W 093°56'0 0.0
2016-Jan-21 03:33N 29°52' W 093°56'0 0.0
2016-Jan-21 02:33N 29°52' W 093°56'0 0.0
2016-Jan-21 01:33N 29°52' W 093°56'0 0.0
2016-Jan-21 00:34N 29°52' W 093°56'0 0.0
2016-Jan-20 07:33N 29°52' W 093°56'0 0.0
2016-Jan-20 06:28N 29°52' W 093°56'0 0.0
2016-Jan-20 05:14N 29°52' W 093°56'0 0.0
2016-Jan-20 04:27N 29°52' W 093°56'0 0.0
2016-Jan-20 01:19N 29°52' W 093°56'0 0.0
2016-Jan-20 00:23N 29°52' W 093°56'10 1.2
2016-Jan-19 16:09N 29°43' W 093°51'5 6.6
2016-Jan-19 15:22N 29°38' W 093°49'6 7.4
2016-Jan-19 14:33N 29°33' W 093°45'5 3.2
2016-Jan-19 13:08N 29°30' W 093°49'48 4.5
2016-Jan-19 02:21N 29°21' W 094°43'5 6.8
2016-Jan-19 01:33N 29°23' W 094°49'7 7.0
2016-Jan-19 00:34N 29°30' W 094°52'7 7.2
2016-Jan-18 23:34N 29°36' W 094°57'7 7.2
2016-Jan-18 22:34N 29°42' W 095°00'6 5.7
2016-Jan-18 21:34N 29°45' W 095°06'1 0.8
2016-Jan-18 20:33N 29°45' W 095°06'0 0.0
2016-Jan-18 19:33N 29°45' W 095°06'0 0.0
2016-Jan-18 18:33N 29°45' W 095°06'0 0.0
2016-Jan-18 17:33N 29°45' W 095°06'0 0.0
2016-Jan-18 16:33N 29°45' W 095°06'0 0.0
2016-Jan-18 15:34N 29°45' W 095°06'0 0.0
2016-Jan-18 14:33N 29°45' W 095°06'0 0.0
2016-Jan-18 13:33N 29°45' W 095°06'0 0.0
2016-Jan-18 12:34N 29°45' W 095°06'0 0.0
2016-Jan-18 11:34N 29°45' W 095°06'0 0.0
2016-Jan-18 10:34N 29°45' W 095°06'0 0.0
2016-Jan-18 09:34N 29°45' W 095°06'0 0.0
2016-Jan-18 08:33N 29°45' W 095°06'0 0.0
2016-Jan-18 07:34N 29°45' W 095°06'0 0.0
2016-Jan-18 06:34N 29°45' W 095°06'0 0.0
2016-Jan-18 05:34N 29°45' W 095°06'0 0.0
2016-Jan-18 04:34N 29°45' W 095°06'0 0.0
2016-Jan-18 03:33N 29°45' W 095°06'0 0.0
2016-Jan-18 02:34N 29°45' W 095°06'0 0.0
2016-Jan-18 01:34N 29°45' W 095°06'0 0.0
2016-Jan-18 00:33N 29°45' W 095°06'0 0.0
2016-Jan-17 23:34N 29°45' W 095°06'0 0.0
2016-Jan-17 22:33N 29°45' W 095°06'1 1.0
2016-Jan-17 21:30N 29°46' W 095°05'8 8.0
2016-Jan-17 20:34N 29°41' W 094°59'10 9.7
2016-Jan-17 19:34N 29°32' W 094°54'1310.8
2016-Jan-17 18:20N 29°21' W 094°46'1 1.6
2016-Jan-17 17:33N 29°21' W 094°45'0 0.0
2016-Jan-17 16:34N 29°21' W 094°45'0 0.1
2016-Jan-17 14:30N 29°21' W 094°45'0 0.0
2016-Jan-17 11:30N 29°21' W 094°45'0 0.0
2016-Jan-17 10:33N 29°21' W 094°45'0 0.0
2016-Jan-17 09:14N 29°21' W 094°45'0 0.0
2016-Jan-17 08:27N 29°21' W 094°45'0 0.0
2016-Jan-17 07:25N 29°21' W 094°45'0 0.0
2016-Jan-17 06:29N 29°21' W 094°45'0 0.2
2016-Jan-17 03:24N 29°21' W 094°44'51 5.8
2016-Jan-16 18:30N 29°41' W 093°50'11 5.7
2016-Jan-16 16:31N 29°50' W 093°57'0 0.0
2016-Jan-16 15:34N 29°50' W 093°58'0 0.0
2016-Jan-16 14:33N 29°50' W 093°58'0 0.0
2016-Jan-16 13:34N 29°50' W 093°58'0 0.0
2016-Jan-16 12:33N 29°50' W 093°58'0 0.0
2016-Jan-16 11:33N 29°50' W 093°58'0 0.0
2016-Jan-16 10:34N 29°50' W 093°58'0 0.0
2016-Jan-16 09:34N 29°50' W 093°58'0 0.0
2016-Jan-16 08:34N 29°50' W 093°58'0 0.0
2016-Jan-16 07:33N 29°50' W 093°58'0 0.0
2016-Jan-16 06:33N 29°50' W 093°58'0 0.0
2016-Jan-16 05:32N 29°50' W 093°58'0 0.0
2016-Jan-16 04:29N 29°50' W 093°58'  

Dump ship's entire track history